sensor_id;sensor_type;location;lat;lon;timestamp;P1;durP1;ratioP1;P2;durP2;ratioP2
12425;SDS011;6277;49.824;9.562;2023-01-30T00:00:31;11.05;;;7.68;;
12425;SDS011;6277;49.824;9.562;2023-01-30T00:02:57;12.00;;;7.55;;
12425;SDS011;6277;49.824;9.562;2023-01-30T00:05:23;9.43;;;6.75;;
12425;SDS011;6277;49.824;9.562;2023-01-30T00:07:48;11.82;;;7.57;;
12425;SDS011;6277;49.824;9.562;2023-01-30T00:10:14;12.23;;;8.13;;
12425;SDS011;6277;49.824;9.562;2023-01-30T00:12:40;11.35;;;7.53;;
12425;SDS011;6277;49.824;9.562;2023-01-30T00:15:05;11.98;;;7.68;;
12425;SDS011;6277;49.824;9.562;2023-01-30T00:17:32;11.02;;;7.95;;
12425;SDS011;6277;49.824;9.562;2023-01-30T00:19:57;11.05;;;7.47;;
12425;SDS011;6277;49.824;9.562;2023-01-30T00:22:23;10.77;;;7.22;;
12425;SDS011;6277;49.824;9.562;2023-01-30T00:24:48;11.85;;;7.63;;
12425;SDS011;6277;49.824;9.562;2023-01-30T00:27:14;10.38;;;7.13;;
12425;SDS011;6277;49.824;9.562;2023-01-30T00:29:39;11.60;;;7.00;;
12425;SDS011;6277;49.824;9.562;2023-01-30T00:32:05;10.52;;;6.72;;
12425;SDS011;6277;49.824;9.562;2023-01-30T00:34:30;10.52;;;7.30;;
12425;SDS011;6277;49.824;9.562;2023-01-30T00:36:56;11.18;;;6.93;;
12425;SDS011;6277;49.824;9.562;2023-01-30T00:39:22;12.00;;;7.55;;
12425;SDS011;6277;49.824;9.562;2023-01-30T00:41:47;10.32;;;6.57;;
12425;SDS011;6277;49.824;9.562;2023-01-30T00:44:32;10.65;;;7.13;;
12425;SDS011;6277;49.824;9.562;2023-01-30T00:47:16;9.90;;;6.75;;
12425;SDS011;6277;49.824;9.562;2023-01-30T00:49:41;9.20;;;6.50;;
12425;SDS011;6277;49.824;9.562;2023-01-30T00:52:07;9.68;;;6.85;;
12425;SDS011;6277;49.824;9.562;2023-01-30T00:54:33;9.65;;;6.55;;
12425;SDS011;6277;49.824;9.562;2023-01-30T00:56:58;9.98;;;6.38;;
12425;SDS011;6277;49.824;9.562;2023-01-30T00:59:24;8.65;;;6.38;;
12425;SDS011;6277;49.824;9.562;2023-01-30T01:01:50;9.23;;;5.72;;
12425;SDS011;6277;49.824;9.562;2023-01-30T01:04:16;8.98;;;6.03;;
12425;SDS011;6277;49.824;9.562;2023-01-30T01:06:41;9.85;;;6.43;;
12425;SDS011;6277;49.824;9.562;2023-01-30T01:09:07;9.23;;;6.35;;
12425;SDS011;6277;49.824;9.562;2023-01-30T01:11:33;9.02;;;6.03;;
12425;SDS011;6277;49.824;9.562;2023-01-30T01:13:59;8.60;;;6.10;;
12425;SDS011;6277;49.824;9.562;2023-01-30T01:16:26;8.68;;;5.95;;
12425;SDS011;6277;49.824;9.562;2023-01-30T01:18:53;8.40;;;5.57;;
12425;SDS011;6277;49.824;9.562;2023-01-30T01:21:19;11.00;;;6.53;;
12425;SDS011;6277;49.824;9.562;2023-01-30T01:23:53;8.85;;;6.03;;
12425;SDS011;6277;49.824;9.562;2023-01-30T01:26:20;9.18;;;5.85;;
12425;SDS011;6277;49.824;9.562;2023-01-30T01:28:46;9.60;;;6.35;;
12425;SDS011;6277;49.824;9.562;2023-01-30T01:31:12;9.27;;;6.20;;
12425;SDS011;6277;49.824;9.562;2023-01-30T01:33:39;8.63;;;5.93;;
12425;SDS011;6277;49.824;9.562;2023-01-30T01:36:05;10.70;;;5.72;;
12425;SDS011;6277;49.824;9.562;2023-01-30T01:38:31;8.75;;;5.93;;
12425;SDS011;6277;49.824;9.562;2023-01-30T01:40:58;8.43;;;5.90;;
12425;SDS011;6277;49.824;9.562;2023-01-30T01:43:27;8.10;;;5.22;;
12425;SDS011;6277;49.824;9.562;2023-01-30T01:46:03;10.05;;;6.20;;
12425;SDS011;6277;49.824;9.562;2023-01-30T01:48:45;8.98;;;5.97;;
12425;SDS011;6277;49.824;9.562;2023-01-30T01:51:16;7.88;;;5.35;;
12425;SDS011;6277;49.824;9.562;2023-01-30T01:53:48;7.93;;;5.28;;
12425;SDS011;6277;49.824;9.562;2023-01-30T01:56:18;7.20;;;4.95;;
12425;SDS011;6277;49.824;9.562;2023-01-30T01:58:46;8.23;;;5.18;;
12425;SDS011;6277;49.824;9.562;2023-01-30T02:01:15;8.23;;;5.72;;
12425;SDS011;6277;49.824;9.562;2023-01-30T02:03:41;7.25;;;5.22;;
12425;SDS011;6277;49.824;9.562;2023-01-30T02:06:11;8.35;;;5.30;;
12425;SDS011;6277;49.824;9.562;2023-01-30T02:08:40;7.18;;;4.72;;
12425;SDS011;6277;49.824;9.562;2023-01-30T02:11:36;8.55;;;5.00;;
12425;SDS011;6277;49.824;9.562;2023-01-30T02:14:11;10.80;;;5.40;;
12425;SDS011;6277;49.824;9.562;2023-01-30T02:16:38;7.68;;;5.28;;
12425;SDS011;6277;49.824;9.562;2023-01-30T02:19:06;8.02;;;4.68;;
12425;SDS011;6277;49.824;9.562;2023-01-30T02:21:54;7.75;;;5.00;;
12425;SDS011;6277;49.824;9.562;2023-01-30T02:27:59;9.35;;;5.22;;
12425;SDS011;6277;49.824;9.562;2023-01-30T02:30:51;7.10;;;5.00;;
12425;SDS011;6277;49.824;9.562;2023-01-30T02:36:15;7.20;;;4.80;;
12425;SDS011;6277;49.824;9.562;2023-01-30T02:38:55;7.32;;;4.88;;
12425;SDS011;6277;49.824;9.562;2023-01-30T02:47:28;6.75;;;4.72;;
12425;SDS011;6277;49.824;9.562;2023-01-30T02:50:09;7.95;;;5.18;;
12425;SDS011;6277;49.824;9.562;2023-01-30T02:52:40;6.68;;;4.60;;
12425;SDS011;6277;49.824;9.562;2023-01-30T02:55:21;8.00;;;4.82;;
12425;SDS011;6277;49.824;9.562;2023-01-30T02:57:51;8.30;;;5.10;;
12425;SDS011;6277;49.824;9.562;2023-01-30T03:00:18;7.07;;;5.03;;
12425;SDS011;6277;49.824;9.562;2023-01-30T03:03:04;6.90;;;4.90;;
12425;SDS011;6277;49.824;9.562;2023-01-30T03:08:24;6.82;;;4.72;;
12425;SDS011;6277;49.824;9.562;2023-01-30T03:11:10;5.68;;;4.20;;
12425;SDS011;6277;49.824;9.562;2023-01-30T03:13:54;7.40;;;4.70;;
12425;SDS011;6277;49.824;9.562;2023-01-30T03:16:36;6.35;;;4.97;;
12425;SDS011;6277;49.824;9.562;2023-01-30T03:19:03;7.35;;;4.90;;
12425;SDS011;6277;49.824;9.562;2023-01-30T03:21:31;9.57;;;5.13;;
12425;SDS011;6277;49.824;9.562;2023-01-30T03:23:57;8.07;;;5.75;;
12425;SDS011;6277;49.824;9.562;2023-01-30T03:26:23;7.32;;;5.03;;
12425;SDS011;6277;49.824;9.562;2023-01-30T03:28:53;8.00;;;5.10;;
12425;SDS011;6277;49.824;9.562;2023-01-30T03:31:19;7.10;;;4.88;;
12425;SDS011;6277;49.824;9.562;2023-01-30T03:33:45;8.07;;;5.38;;
12425;SDS011;6277;49.824;9.562;2023-01-30T03:36:10;7.90;;;5.30;;
12425;SDS011;6277;49.824;9.562;2023-01-30T03:38:36;7.85;;;5.28;;
12425;SDS011;6277;49.824;9.562;2023-01-30T03:41:02;6.93;;;5.05;;
12425;SDS011;6277;49.824;9.562;2023-01-30T03:43:29;7.82;;;5.13;;
12425;SDS011;6277;49.824;9.562;2023-01-30T03:45:55;8.43;;;5.35;;
12425;SDS011;6277;49.824;9.562;2023-01-30T03:48:20;8.30;;;5.40;;
12425;SDS011;6277;49.824;9.562;2023-01-30T03:50:46;7.82;;;5.00;;
12425;SDS011;6277;49.824;9.562;2023-01-30T03:53:11;7.53;;;5.10;;
12425;SDS011;6277;49.824;9.562;2023-01-30T03:55:37;7.90;;;5.10;;
12425;SDS011;6277;49.824;9.562;2023-01-30T03:58:03;8.55;;;5.35;;
12425;SDS011;6277;49.824;9.562;2023-01-30T04:00:29;6.93;;;5.18;;
12425;SDS011;6277;49.824;9.562;2023-01-30T04:02:55;6.95;;;4.85;;
12425;SDS011;6277;49.824;9.562;2023-01-30T04:05:21;7.93;;;5.00;;
12425;SDS011;6277;49.824;9.562;2023-01-30T04:07:47;8.05;;;5.32;;
12425;SDS011;6277;49.824;9.562;2023-01-30T04:10:12;7.28;;;4.38;;
12425;SDS011;6277;49.824;9.562;2023-01-30T04:12:39;6.93;;;4.85;;
12425;SDS011;6277;49.824;9.562;2023-01-30T04:15:06;8.35;;;5.03;;
12425;SDS011;6277;49.824;9.562;2023-01-30T04:17:33;9.50;;;5.40;;
12425;SDS011;6277;49.824;9.562;2023-01-30T04:19:58;8.27;;;5.22;;
12425;SDS011;6277;49.824;9.562;2023-01-30T04:22:24;8.55;;;5.65;;
12425;SDS011;6277;49.824;9.562;2023-01-30T04:24:49;9.73;;;5.60;;
12425;SDS011;6277;49.824;9.562;2023-01-30T04:27:15;9.35;;;6.38;;
12425;SDS011;6277;49.824;9.562;2023-01-30T04:29:40;7.05;;;5.05;;
12425;SDS011;6277;49.824;9.562;2023-01-30T04:32:06;10.13;;;6.95;;
12425;SDS011;6277;49.824;9.562;2023-01-30T04:34:32;10.32;;;6.60;;
12425;SDS011;6277;49.824;9.562;2023-01-30T04:36:57;10.45;;;6.50;;
12425;SDS011;6277;49.824;9.562;2023-01-30T04:39:23;8.32;;;5.93;;
12425;SDS011;6277;49.824;9.562;2023-01-30T04:41:48;8.43;;;5.82;;
12425;SDS011;6277;49.824;9.562;2023-01-30T04:44:14;9.40;;;6.15;;
12425;SDS011;6277;49.824;9.562;2023-01-30T04:46:39;11.00;;;6.68;;
12425;SDS011;6277;49.824;9.562;2023-01-30T04:49:05;8.57;;;6.20;;
12425;SDS011;6277;49.824;9.562;2023-01-30T04:51:30;9.70;;;6.28;;
12425;SDS011;6277;49.824;9.562;2023-01-30T04:53:56;8.70;;;6.18;;
12425;SDS011;6277;49.824;9.562;2023-01-30T04:56:21;9.40;;;6.32;;
12425;SDS011;6277;49.824;9.562;2023-01-30T04:58:47;10.55;;;6.72;;
12425;SDS011;6277;49.824;9.562;2023-01-30T05:03:38;10.60;;;6.68;;
12425;SDS011;6277;49.824;9.562;2023-01-30T05:06:04;10.43;;;6.88;;
12425;SDS011;6277;49.824;9.562;2023-01-30T05:08:29;10.07;;;7.03;;
12425;SDS011;6277;49.824;9.562;2023-01-30T05:10:56;9.52;;;6.35;;
12425;SDS011;6277;49.824;9.562;2023-01-30T05:13:22;11.32;;;7.30;;
12425;SDS011;6277;49.824;9.562;2023-01-30T05:15:47;10.85;;;7.45;;
12425;SDS011;6277;49.824;9.562;2023-01-30T05:18:13;12.10;;;7.53;;
12425;SDS011;6277;49.824;9.562;2023-01-30T05:20:38;11.55;;;7.43;;
12425;SDS011;6277;49.824;9.562;2023-01-30T05:23:04;10.38;;;6.75;;
12425;SDS011;6277;49.824;9.562;2023-01-30T05:25:29;10.60;;;6.90;;
12425;SDS011;6277;49.824;9.562;2023-01-30T05:27:55;10.55;;;7.15;;
12425;SDS011;6277;49.824;9.562;2023-01-30T05:30:21;12.23;;;6.70;;
12425;SDS011;6277;49.824;9.562;2023-01-30T05:32:46;10.40;;;6.55;;
12425;SDS011;6277;49.824;9.562;2023-01-30T05:35:12;10.88;;;7.40;;
12425;SDS011;6277;49.824;9.562;2023-01-30T05:37:38;10.35;;;7.03;;
12425;SDS011;6277;49.824;9.562;2023-01-30T05:40:03;10.55;;;7.07;;
12425;SDS011;6277;49.824;9.562;2023-01-30T05:42:30;11.52;;;7.38;;
12425;SDS011;6277;49.824;9.562;2023-01-30T05:44:55;11.70;;;7.75;;
12425;SDS011;6277;49.824;9.562;2023-01-30T05:47:21;11.48;;;7.72;;
12425;SDS011;6277;49.824;9.562;2023-01-30T05:49:46;10.75;;;7.32;;
12425;SDS011;6277;49.824;9.562;2023-01-30T05:52:12;12.80;;;8.02;;
12425;SDS011;6277;49.824;9.562;2023-01-30T05:54:37;12.15;;;7.78;;
12425;SDS011;6277;49.824;9.562;2023-01-30T05:57:03;11.30;;;7.57;;
12425;SDS011;6277;49.824;9.562;2023-01-30T05:59:28;12.75;;;8.00;;
12425;SDS011;6277;49.824;9.562;2023-01-30T06:01:54;12.73;;;8.18;;
12425;SDS011;6277;49.824;9.562;2023-01-30T06:04:19;11.55;;;7.78;;
12425;SDS011;6277;49.824;9.562;2023-01-30T06:06:47;13.18;;;7.70;;
12425;SDS011;6277;49.824;9.562;2023-01-30T06:09:13;10.82;;;7.50;;
12425;SDS011;6277;49.824;9.562;2023-01-30T06:11:39;11.70;;;7.63;;
12425;SDS011;6277;49.824;9.562;2023-01-30T06:14:04;11.38;;;7.60;;
12425;SDS011;6277;49.824;9.562;2023-01-30T06:16:30;11.02;;;7.50;;
12425;SDS011;6277;49.824;9.562;2023-01-30T06:18:55;10.10;;;7.13;;
12425;SDS011;6277;49.824;9.562;2023-01-30T06:21:21;10.35;;;6.70;;
12425;SDS011;6277;49.824;9.562;2023-01-30T06:23:46;11.82;;;7.38;;
12425;SDS011;6277;49.824;9.562;2023-01-30T06:26:12;9.45;;;6.28;;
12425;SDS011;6277;49.824;9.562;2023-01-30T06:28:38;10.55;;;6.97;;
12425;SDS011;6277;49.824;9.562;2023-01-30T06:31:04;10.20;;;6.45;;
12425;SDS011;6277;49.824;9.562;2023-01-30T06:33:31;10.05;;;6.90;;
12425;SDS011;6277;49.824;9.562;2023-01-30T06:35:56;10.10;;;7.07;;
12425;SDS011;6277;49.824;9.562;2023-01-30T06:38:22;10.20;;;6.88;;
12425;SDS011;6277;49.824;9.562;2023-01-30T06:40:48;10.82;;;6.85;;
12425;SDS011;6277;49.824;9.562;2023-01-30T06:43:14;10.05;;;6.53;;
12425;SDS011;6277;49.824;9.562;2023-01-30T06:45:41;9.68;;;6.53;;
12425;SDS011;6277;49.824;9.562;2023-01-30T06:48:06;9.85;;;6.20;;
12425;SDS011;6277;49.824;9.562;2023-01-30T06:50:32;10.48;;;6.82;;
12425;SDS011;6277;49.824;9.562;2023-01-30T06:53:00;10.63;;;6.72;;
12425;SDS011;6277;49.824;9.562;2023-01-30T06:55:30;10.23;;;6.70;;
12425;SDS011;6277;49.824;9.562;2023-01-30T07:00:28;11.68;;;7.05;;
12425;SDS011;6277;49.824;9.562;2023-01-30T07:02:54;11.07;;;6.25;;
12425;SDS011;6277;49.824;9.562;2023-01-30T07:05:20;10.02;;;6.22;;
12425;SDS011;6277;49.824;9.562;2023-01-30T07:07:45;10.95;;;6.88;;
12425;SDS011;6277;49.824;9.562;2023-01-30T07:10:11;8.68;;;5.88;;
12425;SDS011;6277;49.824;9.562;2023-01-30T07:12:37;9.38;;;6.10;;
12425;SDS011;6277;49.824;9.562;2023-01-30T07:15:03;13.10;;;6.80;;
12425;SDS011;6277;49.824;9.562;2023-01-30T07:17:30;7.93;;;5.63;;
12425;SDS011;6277;49.824;9.562;2023-01-30T07:19:56;9.80;;;6.07;;
12425;SDS011;6277;49.824;9.562;2023-01-30T07:22:21;9.68;;;6.43;;
12425;SDS011;6277;49.824;9.562;2023-01-30T07:24:47;10.32;;;6.47;;
12425;SDS011;6277;49.824;9.562;2023-01-30T07:27:13;9.43;;;5.82;;
12425;SDS011;6277;49.824;9.562;2023-01-30T07:29:38;7.70;;;5.20;;
12425;SDS011;6277;49.824;9.562;2023-01-30T07:32:05;10.38;;;5.90;;
12425;SDS011;6277;49.824;9.562;2023-01-30T07:34:32;9.15;;;5.80;;
12425;SDS011;6277;49.824;9.562;2023-01-30T07:36:58;7.78;;;5.47;;
12425;SDS011;6277;49.824;9.562;2023-01-30T07:39:23;8.55;;;5.75;;
12425;SDS011;6277;49.824;9.562;2023-01-30T07:41:49;9.75;;;6.20;;
12425;SDS011;6277;49.824;9.562;2023-01-30T07:44:14;10.57;;;6.10;;
12425;SDS011;6277;49.824;9.562;2023-01-30T07:46:40;8.95;;;5.80;;
12425;SDS011;6277;49.824;9.562;2023-01-30T07:49:06;8.27;;;5.53;;
12425;SDS011;6277;49.824;9.562;2023-01-30T07:51:33;10.68;;;5.57;;
12425;SDS011;6277;49.824;9.562;2023-01-30T07:53:59;7.90;;;5.55;;
12425;SDS011;6277;49.824;9.562;2023-01-30T07:56:26;6.85;;;5.15;;
12425;SDS011;6277;49.824;9.562;2023-01-30T07:58:52;7.82;;;5.10;;
12425;SDS011;6277;49.824;9.562;2023-01-30T08:01:18;8.88;;;5.50;;
12425;SDS011;6277;49.824;9.562;2023-01-30T08:03:44;8.38;;;5.00;;
12425;SDS011;6277;49.824;9.562;2023-01-30T08:06:11;8.30;;;5.65;;
12425;SDS011;6277;49.824;9.562;2023-01-30T08:08:37;10.95;;;5.38;;
12425;SDS011;6277;49.824;9.562;2023-01-30T08:11:03;8.30;;;4.50;;
12425;SDS011;6277;49.824;9.562;2023-01-30T08:13:29;7.88;;;5.32;;
12425;SDS011;6277;49.824;9.562;2023-01-30T08:15:58;8.15;;;5.40;;
12425;SDS011;6277;49.824;9.562;2023-01-30T08:18:24;8.02;;;5.30;;
12425;SDS011;6277;49.824;9.562;2023-01-30T08:20:49;7.60;;;4.93;;
12425;SDS011;6277;49.824;9.562;2023-01-30T08:23:15;6.57;;;4.47;;
12425;SDS011;6277;49.824;9.562;2023-01-30T08:25:40;7.40;;;5.25;;
12425;SDS011;6277;49.824;9.562;2023-01-30T08:28:06;7.22;;;4.68;;
12425;SDS011;6277;49.824;9.562;2023-01-30T08:30:31;6.32;;;4.70;;
12425;SDS011;6277;49.824;9.562;2023-01-30T08:32:57;7.40;;;4.60;;
12425;SDS011;6277;49.824;9.562;2023-01-30T08:35:23;6.78;;;4.78;;
12425;SDS011;6277;49.824;9.562;2023-01-30T08:37:48;5.47;;;4.15;;
12425;SDS011;6277;49.824;9.562;2023-01-30T08:40:14;5.72;;;3.97;;
12425;SDS011;6277;49.824;9.562;2023-01-30T08:42:42;7.68;;;4.78;;
12425;SDS011;6277;49.824;9.562;2023-01-30T08:45:09;6.00;;;4.25;;
12425;SDS011;6277;49.824;9.562;2023-01-30T08:47:35;6.68;;;4.45;;
12425;SDS011;6277;49.824;9.562;2023-01-30T08:50:00;4.82;;;3.63;;
12425;SDS011;6277;49.824;9.562;2023-01-30T08:52:26;5.95;;;4.10;;
12425;SDS011;6277;49.824;9.562;2023-01-30T08:54:52;6.18;;;4.47;;
12425;SDS011;6277;49.824;9.562;2023-01-30T08:57:17;5.15;;;3.70;;
12425;SDS011;6277;49.824;9.562;2023-01-30T08:59:43;4.45;;;3.47;;
12425;SDS011;6277;49.824;9.562;2023-01-30T09:02:10;4.50;;;3.42;;
12425;SDS011;6277;49.824;9.562;2023-01-30T09:04:36;4.88;;;3.53;;
12425;SDS011;6277;49.824;9.562;2023-01-30T09:07:01;4.35;;;3.45;;
12425;SDS011;6277;49.824;9.562;2023-01-30T09:09:27;5.07;;;3.40;;
12425;SDS011;6277;49.824;9.562;2023-01-30T09:11:53;4.93;;;3.42;;
12425;SDS011;6277;49.824;9.562;2023-01-30T09:14:19;5.38;;;3.50;;
12425;SDS011;6277;49.824;9.562;2023-01-30T09:16:48;4.63;;;3.22;;
12425;SDS011;6277;49.824;9.562;2023-01-30T09:19:23;4.88;;;3.10;;
12425;SDS011;6277;49.824;9.562;2023-01-30T09:21:50;4.57;;;3.40;;
12425;SDS011;6277;49.824;9.562;2023-01-30T09:24:16;3.53;;;2.90;;
12425;SDS011;6277;49.824;9.562;2023-01-30T09:26:42;4.50;;;3.20;;
12425;SDS011;6277;49.824;9.562;2023-01-30T09:29:09;5.47;;;3.25;;
12425;SDS011;6277;49.824;9.562;2023-01-30T09:31:38;4.97;;;3.38;;
12425;SDS011;6277;49.824;9.562;2023-01-30T09:34:04;4.20;;;3.25;;
12425;SDS011;6277;49.824;9.562;2023-01-30T09:36:29;4.68;;;3.15;;
12425;SDS011;6277;49.824;9.562;2023-01-30T09:38:55;4.32;;;3.00;;
12425;SDS011;6277;49.824;9.562;2023-01-30T09:49:35;4.47;;;3.25;;
12425;SDS011;6277;49.824;9.562;2023-01-30T09:54:50;4.25;;;2.92;;
12425;SDS011;6277;49.824;9.562;2023-01-30T09:57:39;2.90;;;2.35;;
12425;SDS011;6277;49.824;9.562;2023-01-30T10:02:43;3.58;;;2.80;;
12425;SDS011;6277;49.824;9.562;2023-01-30T10:05:17;4.03;;;2.88;;
12425;SDS011;6277;49.824;9.562;2023-01-30T10:07:58;4.00;;;2.50;;
12425;SDS011;6277;49.824;9.562;2023-01-30T10:10:47;3.90;;;2.70;;
12425;SDS011;6277;49.824;9.562;2023-01-30T10:13:22;4.68;;;3.40;;
12425;SDS011;6277;49.824;9.562;2023-01-30T10:16:20;5.05;;;3.70;;
12425;SDS011;6277;49.824;9.562;2023-01-30T10:19:08;4.38;;;3.08;;
12425;SDS011;6277;49.824;9.562;2023-01-30T10:21:49;3.70;;;2.60;;
12425;SDS011;6277;49.824;9.562;2023-01-30T10:27:14;4.45;;;2.90;;
12425;SDS011;6277;49.824;9.562;2023-01-30T10:29:42;6.30;;;3.53;;
12425;SDS011;6277;49.824;9.562;2023-01-30T10:32:19;4.10;;;2.95;;
12425;SDS011;6277;49.824;9.562;2023-01-30T10:34:57;4.45;;;3.13;;
12425;SDS011;6277;49.824;9.562;2023-01-30T10:37:31;4.68;;;3.10;;
12425;SDS011;6277;49.824;9.562;2023-01-30T10:40:19;4.35;;;3.47;;
12425;SDS011;6277;49.824;9.562;2023-01-30T10:51:14;3.22;;;2.60;;
12425;SDS011;6277;49.824;9.562;2023-01-30T10:56:19;3.78;;;2.50;;
12425;SDS011;6277;49.824;9.562;2023-01-30T11:02:12;3.22;;;2.53;;
12425;SDS011;6277;49.824;9.562;2023-01-30T11:05:00;3.55;;;2.40;;
12425;SDS011;6277;49.824;9.562;2023-01-30T11:07:33;3.45;;;2.60;;
12425;SDS011;6277;49.824;9.562;2023-01-30T11:09:59;3.78;;;2.80;;
12425;SDS011;6277;49.824;9.562;2023-01-30T11:12:25;2.78;;;2.30;;
12425;SDS011;6277;49.824;9.562;2023-01-30T11:14:51;3.40;;;2.60;;
12425;SDS011;6277;49.824;9.562;2023-01-30T11:17:42;3.45;;;2.17;;
12425;SDS011;6277;49.824;9.562;2023-01-30T11:20:19;3.70;;;2.42;;
12425;SDS011;6277;49.824;9.562;2023-01-30T11:22:58;3.53;;;2.40;;
12425;SDS011;6277;49.824;9.562;2023-01-30T11:25:29;3.58;;;2.22;;
12425;SDS011;6277;49.824;9.562;2023-01-30T11:28:02;3.28;;;2.58;;
12425;SDS011;6277;49.824;9.562;2023-01-30T11:30:32;3.33;;;2.55;;
12425;SDS011;6277;49.824;9.562;2023-01-30T11:33:12;2.72;;;2.28;;
12425;SDS011;6277;49.824;9.562;2023-01-30T11:35:58;3.80;;;2.35;;
12425;SDS011;6277;49.824;9.562;2023-01-30T11:38:28;3.25;;;2.40;;
12425;SDS011;6277;49.824;9.562;2023-01-30T11:43:34;3.60;;;2.80;;
12425;SDS011;6277;49.824;9.562;2023-01-30T11:46:03;3.50;;;2.85;;
12425;SDS011;6277;49.824;9.562;2023-01-30T11:48:31;3.40;;;2.40;;
12425;SDS011;6277;49.824;9.562;2023-01-30T11:50:59;2.88;;;2.20;;
12425;SDS011;6277;49.824;9.562;2023-01-30T11:53:33;2.50;;;2.10;;
12425;SDS011;6277;49.824;9.562;2023-01-30T11:56:04;3.13;;;2.20;;
12425;SDS011;6277;49.824;9.562;2023-01-30T11:58:44;2.88;;;2.03;;
12425;SDS011;6277;49.824;9.562;2023-01-30T12:01:23;2.55;;;2.00;;
12425;SDS011;6277;49.824;9.562;2023-01-30T12:03:53;2.92;;;2.38;;
12425;SDS011;6277;49.824;9.562;2023-01-30T12:06:27;3.00;;;2.30;;
12425;SDS011;6277;49.824;9.562;2023-01-30T12:08:58;2.90;;;2.20;;
12425;SDS011;6277;49.824;9.562;2023-01-30T12:13:52;2.33;;;2.13;;
12425;SDS011;6277;49.824;9.562;2023-01-30T12:16:53;2.55;;;2.13;;
12425;SDS011;6277;49.824;9.562;2023-01-30T12:22:25;2.15;;;1.80;;
12425;SDS011;6277;49.824;9.562;2023-01-30T12:30:27;2.65;;;1.90;;
12425;SDS011;6277;49.824;9.562;2023-01-30T12:33:00;3.72;;;2.00;;
12425;SDS011;6277;49.824;9.562;2023-01-30T12:35:30;2.58;;;1.90;;
12425;SDS011;6277;49.824;9.562;2023-01-30T12:41:30;2.53;;;1.80;;
12425;SDS011;6277;49.824;9.562;2023-01-30T12:47:05;2.33;;;1.85;;
12425;SDS011;6277;49.824;9.562;2023-01-30T12:49:46;3.58;;;2.03;;
12425;SDS011;6277;49.824;9.562;2023-01-30T12:52:27;1.98;;;1.50;;
12425;SDS011;6277;49.824;9.562;2023-01-30T12:58:13;2.65;;;1.85;;
12425;SDS011;6277;49.824;9.562;2023-01-30T13:00:57;2.13;;;1.80;;
12425;SDS011;6277;49.824;9.562;2023-01-30T13:08:58;2.67;;;1.80;;
12425;SDS011;6277;49.824;9.562;2023-01-30T13:11:56;3.00;;;1.73;;
12425;SDS011;6277;49.824;9.562;2023-01-30T13:14:30;2.28;;;1.30;;
12425;SDS011;6277;49.824;9.562;2023-01-30T13:17:15;2.38;;;1.33;;
12425;SDS011;6277;49.824;9.562;2023-01-30T13:20:07;1.92;;;1.30;;
12425;SDS011;6277;49.824;9.562;2023-01-30T13:22:39;1.52;;;1.38;;
12425;SDS011;6277;49.824;9.562;2023-01-30T13:25:18;2.20;;;1.50;;
12425;SDS011;6277;49.824;9.562;2023-01-30T13:27:53;2.78;;;1.60;;
12425;SDS011;6277;49.824;9.562;2023-01-30T13:30:22;2.10;;;1.38;;
12425;SDS011;6277;49.824;9.562;2023-01-30T13:32:52;2.50;;;1.33;;
12425;SDS011;6277;49.824;9.562;2023-01-30T13:35:23;2.78;;;1.55;;
12425;SDS011;6277;49.824;9.562;2023-01-30T13:40:22;3.47;;;1.60;;
12425;SDS011;6277;49.824;9.562;2023-01-30T13:45:28;1.92;;;1.20;;
12425;SDS011;6277;49.824;9.562;2023-01-30T13:48:09;1.48;;;1.02;;
12425;SDS011;6277;49.824;9.562;2023-01-30T13:51:04;2.55;;;1.42;;
12425;SDS011;6277;49.824;9.562;2023-01-30T13:53:41;2.75;;;1.48;;
12425;SDS011;6277;49.824;9.562;2023-01-30T14:09:38;2.08;;;1.40;;
12425;SDS011;6277;49.824;9.562;2023-01-30T14:12:16;7.00;;;1.40;;
12425;SDS011;6277;49.824;9.562;2023-01-30T14:14:57;2.75;;;1.30;;
12425;SDS011;6277;49.824;9.562;2023-01-30T14:20:30;2.80;;;1.38;;
12425;SDS011;6277;49.824;9.562;2023-01-30T14:22:57;4.22;;;1.88;;
12425;SDS011;6277;49.824;9.562;2023-01-30T14:32:56;2.22;;;1.40;;
12425;SDS011;6277;49.824;9.562;2023-01-30T14:35:24;3.80;;;1.48;;
12425;SDS011;6277;49.824;9.562;2023-01-30T14:40:37;5.45;;;2.10;;
12425;SDS011;6277;49.824;9.562;2023-01-30T14:45:52;3.90;;;1.30;;
12425;SDS011;6277;49.824;9.562;2023-01-30T14:53:51;2.35;;;1.65;;
12425;SDS011;6277;49.824;9.562;2023-01-30T15:04:36;3.22;;;1.60;;
12425;SDS011;6277;49.824;9.562;2023-01-30T15:07:22;3.45;;;1.63;;
12425;SDS011;6277;49.824;9.562;2023-01-30T15:10:12;2.90;;;1.75;;
12425;SDS011;6277;49.824;9.562;2023-01-30T15:18:21;4.68;;;2.03;;
12425;SDS011;6277;49.824;9.562;2023-01-30T15:21:00;4.72;;;2.30;;
12425;SDS011;6277;49.824;9.562;2023-01-30T15:29:28;4.22;;;1.65;;
12425;SDS011;6277;49.824;9.562;2023-01-30T15:32:19;4.97;;;2.45;;
12425;SDS011;6277;49.824;9.562;2023-01-30T15:45:17;3.42;;;1.80;;
12425;SDS011;6277;49.824;9.562;2023-01-30T15:48:06;3.85;;;1.88;;
12425;SDS011;6277;49.824;9.562;2023-01-30T15:50:54;3.92;;;1.70;;
12425;SDS011;6277;49.824;9.562;2023-01-30T15:53:24;5.00;;;2.22;;
12425;SDS011;6277;49.824;9.562;2023-01-30T15:55:55;3.47;;;1.90;;
12425;SDS011;6277;49.824;9.562;2023-01-30T15:58:22;4.50;;;2.20;;
12425;SDS011;6277;49.824;9.562;2023-01-30T16:00:49;4.05;;;1.90;;
12425;SDS011;6277;49.824;9.562;2023-01-30T16:03:21;2.75;;;1.70;;
12425;SDS011;6277;49.824;9.562;2023-01-30T16:05:50;3.45;;;2.00;;
12425;SDS011;6277;49.824;9.562;2023-01-30T16:09:21;1.95;;;1.60;;
12425;SDS011;6277;49.824;9.562;2023-01-30T16:14:05;4.55;;;2.22;;
12425;SDS011;6277;49.824;9.562;2023-01-30T16:16:35;3.33;;;2.22;;
12425;SDS011;6277;49.824;9.562;2023-01-30T16:19:02;3.25;;;1.95;;
12425;SDS011;6277;49.824;9.562;2023-01-30T16:21:31;3.30;;;1.70;;
12425;SDS011;6277;49.824;9.562;2023-01-30T16:26:30;3.85;;;1.90;;
12425;SDS011;6277;49.824;9.562;2023-01-30T16:28:59;3.47;;;1.98;;
12425;SDS011;6277;49.824;9.562;2023-01-30T16:31:47;4.95;;;1.95;;
12425;SDS011;6277;49.824;9.562;2023-01-30T16:34:21;4.13;;;2.17;;
12425;SDS011;6277;49.824;9.562;2023-01-30T16:36:49;4.85;;;1.90;;
12425;SDS011;6277;49.824;9.562;2023-01-30T16:39:31;2.95;;;1.80;;
12425;SDS011;6277;49.824;9.562;2023-01-30T16:42:01;4.03;;;1.90;;
12425;SDS011;6277;49.824;9.562;2023-01-30T16:44:47;6.22;;;1.73;;
12425;SDS011;6277;49.824;9.562;2023-01-30T16:47:24;3.80;;;1.60;;
12425;SDS011;6277;49.824;9.562;2023-01-30T16:49:51;4.07;;;2.00;;
12425;SDS011;6277;49.824;9.562;2023-01-30T16:52:22;4.97;;;2.00;;
12425;SDS011;6277;49.824;9.562;2023-01-30T16:55:05;3.75;;;1.65;;
12425;SDS011;6277;49.824;9.562;2023-01-30T16:57:42;4.75;;;1.80;;
12425;SDS011;6277;49.824;9.562;2023-01-30T17:00:22;5.25;;;1.92;;
12425;SDS011;6277;49.824;9.562;2023-01-30T17:02:54;6.05;;;2.03;;
12425;SDS011;6277;49.824;9.562;2023-01-30T17:07:53;6.70;;;1.85;;
12425;SDS011;6277;49.824;9.562;2023-01-30T17:12:52;5.43;;;1.63;;
12425;SDS011;6277;49.824;9.562;2023-01-30T17:17:44;6.65;;;1.92;;
12425;SDS011;6277;49.824;9.562;2023-01-30T17:20:10;5.15;;;1.63;;
12425;SDS011;6277;49.824;9.562;2023-01-30T17:22:38;4.30;;;1.50;;
12425;SDS011;6277;49.824;9.562;2023-01-30T17:25:13;6.75;;;1.80;;
12425;SDS011;6277;49.824;9.562;2023-01-30T17:27:55;5.50;;;1.35;;
12425;SDS011;6277;49.824;9.562;2023-01-30T17:30:21;3.83;;;1.58;;
12425;SDS011;6277;49.824;9.562;2023-01-30T17:32:47;7.22;;;2.00;;
12425;SDS011;6277;49.824;9.562;2023-01-30T17:35:14;6.80;;;1.88;;
12425;SDS011;6277;49.824;9.562;2023-01-30T17:37:40;9.50;;;2.10;;
12425;SDS011;6277;49.824;9.562;2023-01-30T17:40:17;5.82;;;1.92;;
12425;SDS011;6277;49.824;9.562;2023-01-30T17:42:44;6.82;;;1.85;;
12425;SDS011;6277;49.824;9.562;2023-01-30T17:45:11;5.35;;;1.70;;
12425;SDS011;6277;49.824;9.562;2023-01-30T17:47:36;3.08;;;1.63;;
12425;SDS011;6277;49.824;9.562;2023-01-30T17:50:02;7.00;;;2.40;;
12425;SDS011;6277;49.824;9.562;2023-01-30T17:52:28;5.13;;;1.58;;
12425;SDS011;6277;49.824;9.562;2023-01-30T17:54:54;5.85;;;1.85;;
12425;SDS011;6277;49.824;9.562;2023-01-30T17:57:21;4.43;;;1.90;;